Time;durP1;ratioP1;P1;durP2;ratioP2;P2;SDS_P1;SDS_P2;PMS_P1;PMS_P2;Temp;Humidity;BMP_temperature;BMP_pressure;BME280_temperature;BME280_humidity;BME280_pressure;Samples;Min_cycle;Max_cycle;Signal;HPM_P1;HPM_P2
2020/12/21 00:01:27;;;;;;;5.55;5.05;;;8.80;99.90;;;;;;4990070;28;20191;-81
2020/12/21 00:03:54;;;;;;;5.63;5.13;;;8.70;99.90;;;;;;4989416;28;20261;-81
2020/12/21 00:06:21;;;;;;;5.47;4.97;;;8.80;99.90;;;;;;4989470;28;20563;-81
2020/12/21 00:08:47;;;;;;;5.35;4.93;;;8.80;99.90;;;;;;4990093;28;20668;-81
2020/12/21 00:11:14;;;;;;;5.15;4.75;;;8.90;99.90;;;;;;4990320;28;20210;-81
2020/12/21 00:13:43;;;;;;;4.80;4.40;;;8.90;99.90;;;;;;4989486;28;20245;-81
2020/12/21 00:16:10;;;;;;;4.40;4.00;;;8.80;99.90;;;;;;4990228;28;20209;-82
2020/12/21 00:18:36;;;;;;;5.20;4.38;;;8.90;99.90;;;;;;4989879;28;20225;-81
2020/12/21 00:21:03;;;;;;;4.43;4.05;;;8.90;99.90;;;;;;4986797;28;20274;-81
2020/12/21 00:23:30;;;;;;;4.50;3.97;;;8.90;99.90;;;;;;4989844;28;20229;-83
2020/12/21 00:25:56;;;;;;;3.70;3.35;;;8.90;99.90;;;;;;4990180;28;20743;-81
2020/12/21 00:28:22;;;;;;;4.57;4.07;;;8.90;99.90;;;;;;4990280;28;20198;-83
2020/12/21 00:30:49;;;;;;;4.18;3.78;;;9.00;99.90;;;;;;4989647;28;20194;-84
2020/12/21 00:33:15;;;;;;;4.45;3.58;;;8.90;99.90;;;;;;4989664;28;20668;-81
2020/12/21 00:35:42;;;;;;;4.30;3.95;;;8.90;99.90;;;;;;4989524;28;20268;-81
2020/12/21 00:38:09;;;;;;;4.45;3.60;;;8.90;99.90;;;;;;4989365;28;20202;-83
2020/12/21 00:40:38;;;;;;;5.30;3.97;;;8.90;99.90;;;;;;4989668;28;20229;-83
2020/12/21 00:43:04;;;;;;;4.50;4.10;;;8.80;99.90;;;;;;4990109;28;20244;-81
2020/12/21 00:45:31;;;;;;;3.47;3.17;;;8.70;99.90;;;;;;4989223;28;20233;-82
2020/12/21 00:47:58;;;;;;;3.40;3.20;;;8.60;99.90;;;;;;4989741;28;20241;-82
2020/12/21 00:50:24;;;;;;;4.40;3.60;;;8.50;99.90;;;;;;4990371;28;20214;-81
2020/12/21 00:52:50;;;;;;;3.60;3.30;;;8.50;99.90;;;;;;4989661;28;20190;-82
2020/12/21 00:55:17;;;;;;;3.38;3.05;;;8.40;99.90;;;;;;4990181;28;20201;-81
2020/12/21 00:57:44;;;;;;;4.80;3.65;;;8.30;99.90;;;;;;4984578;28;20195;-82
2020/12/21 01:00:10;;;;;;;5.20;4.00;;;8.30;99.90;;;;;;4992845;28;20205;-81
2020/12/21 01:02:39;;;;;;;4.40;3.95;;;8.30;99.90;;;;;;4993125;28;20276;-81
2020/12/21 01:05:06;;;;;;;4.40;4.00;;;8.30;99.90;;;;;;4992391;28;20623;-81
2020/12/21 01:07:32;;;;;;;4.55;4.15;;;8.50;99.90;;;;;;4993503;28;20198;-81
2020/12/21 01:09:58;;;;;;;3.80;3.50;;;8.40;99.90;;;;;;4993084;28;20233;-82
2020/12/21 01:12:27;;;;;;;5.28;4.78;;;8.30;99.90;;;;;;4993553;28;20248;-82
2020/12/21 01:14:55;;;;;;;4.97;4.55;;;8.40;99.90;;;;;;4991539;28;20245;-81
2020/12/21 01:17:21;;;;;;;4.20;3.80;;;8.40;99.90;;;;;;4993268;28;20193;-81
2020/12/21 01:19:47;;;;;;;4.68;4.28;;;8.40;99.90;;;;;;4993225;28;20187;-81
2020/12/21 01:22:14;;;;;;;5.65;4.25;;;8.50;99.90;;;;;;4991417;28;20584;-81
2020/12/21 01:24:41;;;;;;;4.97;4.57;;;8.40;99.90;;;;;;4992549;28;20205;-82
2020/12/21 01:27:08;;;;;;;4.80;4.32;;;8.40;99.90;;;;;;4992981;28;20202;-83
2020/12/21 01:29:34;;;;;;;4.78;4.35;;;8.40;99.90;;;;;;4991993;28;20194;-82
2020/12/21 01:32:02;;;;;;;5.90;5.40;;;8.50;99.90;;;;;;4992814;28;20201;-82
2020/12/21 01:34:28;;;;;;;5.40;5.00;;;8.40;99.90;;;;;;4992447;28;20252;-82
2020/12/21 01:36:54;;;;;;;5.05;4.55;;;8.50;99.90;;;;;;4992350;28;20225;-82
2020/12/21 01:39:21;;;;;;;6.03;5.25;;;8.40;99.90;;;;;;4992622;28;20190;-82
2020/12/21 01:41:47;;;;;;;5.07;4.57;;;8.40;99.90;;;;;;4992418;28;20202;-82
2020/12/21 01:44:13;;;;;;;5.25;4.70;;;8.40;99.90;;;;;;4991200;28;20194;-82
2020/12/21 01:46:40;;;;;;;4.88;4.45;;;8.20;99.90;;;;;;4993284;28;20695;-82
2020/12/21 01:49:07;;;;;;;4.50;4.10;;;8.20;99.90;;;;;;4992720;28;20602;-82
2020/12/21 01:51:35;;;;;;;4.65;4.10;;;8.00;99.90;;;;;;4992341;28;20667;-82
2020/12/21 01:54:01;;;;;;;5.35;4.95;;;8.00;99.90;;;;;;4991506;28;20234;-82
2020/12/21 01:56:29;;;;;;;5.00;4.50;;;7.90;99.90;;;;;;4992209;28;20583;-82
2020/12/21 01:58:55;;;;;;;5.63;4.50;;;7.80;99.90;;;;;;4991883;28;20580;-82
2020/12/21 02:01:22;;;;;;;5.93;5.40;;;7.90;99.90;;;;;;4991434;28;20282;-82
2020/12/21 02:03:50;;;;;;;5.13;4.63;;;7.60;99.90;;;;;;4989258;28;20230;-81
2020/12/21 02:06:19;;;;;;;4.45;4.05;;;7.70;99.90;;;;;;4988413;28;20759;-81
2020/12/21 02:08:47;;;;;;;6.75;5.25;;;7.50;99.90;;;;;;4990702;28;20604;-82
2020/12/21 02:11:16;;;;;;;5.45;4.40;;;7.50;99.90;;;;;;4991513;28;20240;-82
2020/12/21 02:13:43;;;;;;;5.15;4.05;;;7.50;99.90;;;;;;4986545;28;20202;-81
2020/12/21 02:16:15;;;;;;;5.38;4.75;;;7.50;99.90;;;;;;4986541;28;20627;-81
2020/12/21 02:18:43;;;;;;;5.32;4.82;;;7.50;99.90;;;;;;4991306;28;20213;-82
2020/12/21 02:21:11;;;;;;;5.57;4.95;;;7.50;99.90;;;;;;4990378;28;20198;-82
2020/12/21 02:23:39;;;;;;;5.30;4.75;;;7.50;99.90;;;;;;4989891;28;20261;-82
2020/12/21 02:26:07;;;;;;;4.97;4.57;;;7.50;99.90;;;;;;4991342;28;20612;-81
2020/12/21 02:28:35;;;;;;;5.13;4.55;;;7.50;99.90;;;;;;4991973;28;20190;-82
2020/12/21 02:31:03;;;;;;;5.25;4.63;;;7.50;99.90;;;;;;4991995;28;20210;-82
2020/12/21 02:33:30;;;;;;;5.30;4.75;;;7.50;99.90;;;;;;4990962;28;20297;-81
2020/12/21 02:36:02;;;;;;;4.88;4.47;;;7.70;99.90;;;;;;4990096;28;20217;-81
2020/12/21 02:38:30;;;;;;;7.35;5.32;;;7.60;99.90;;;;;;4991320;28;20284;-81
2020/12/21 02:40:57;;;;;;;5.15;4.65;;;7.60;99.90;;;;;;4991925;28;20202;-82
2020/12/21 02:43:24;;;;;;;5.38;4.80;;;7.60;99.90;;;;;;4991437;28;20317;-82
2020/12/21 02:45:51;;;;;;;5.25;4.82;;;7.60;99.90;;;;;;4990650;28;20215;-81
2020/12/21 02:48:17;;;;;;;5.88;5.38;;;7.90;99.90;;;;;;4992142;28;20205;-82
2020/12/21 02:50:43;;;;;;;7.65;5.32;;;7.50;99.90;;;;;;4990543;28;20209;-81
2020/12/21 02:53:10;;;;;;;6.75;6.03;;;7.50;99.90;;;;;;4991507;28;20256;-81
2020/12/21 02:55:38;;;;;;;6.25;5.65;;;7.50;99.90;;;;;;4990702;28;20202;-82
2020/12/21 02:58:04;;;;;;;8.13;6.72;;;7.50;99.90;;;;;;4990594;28;20198;-81
2020/12/21 03:00:33;;;;;;;7.30;6.60;;;7.40;99.90;;;;;;4991463;28;20252;-82
2020/12/21 03:03:00;;;;;;;8.40;7.55;;;7.50;99.90;;;;;;4991031;28;20210;-81
2020/12/21 03:05:26;;;;;;;9.63;7.85;;;7.40;99.90;;;;;;4989548;28;20213;-81
2020/12/21 03:07:53;;;;;;;8.48;7.60;;;7.40;99.90;;;;;;4990882;28;20716;-82
2020/12/21 03:10:19;;;;;;;8.45;7.65;;;7.30;99.90;;;;;;4990092;28;20554;-82
2020/12/21 03:12:46;;;;;;;10.00;7.53;;;7.30;99.90;;;;;;4990374;28;20202;-82
2020/12/21 03:15:13;;;;;;;8.48;6.90;;;7.20;99.90;;;;;;4990397;28;20198;-82
2020/12/21 03:17:39;;;;;;;8.57;7.65;;;7.20;99.90;;;;;;4990650;28;20272;-82
2020/12/21 03:20:06;;;;;;;8.90;7.60;;;7.20;99.90;;;;;;4990037;28;20218;-82
2020/12/21 03:22:32;;;;;;;9.05;8.13;;;7.10;99.90;;;;;;4989499;28;20644;-82
2020/12/21 03:25:00;;;;;;;8.27;7.47;;;7.10;99.90;;;;;;4989434;28;20190;-82
2020/12/21 03:27:26;;;;;;;8.20;7.40;;;7.10;99.90;;;;;;4990614;28;20201;-82
2020/12/21 03:29:54;;;;;;;7.50;6.72;;;7.00;99.90;;;;;;4990761;28;20318;-82
2020/12/21 03:32:20;;;;;;;8.18;7.43;;;7.00;99.90;;;;;;4990206;28;20679;-82
2020/12/21 03:34:47;;;;;;;8.25;7.45;;;6.90;99.90;;;;;;4989396;28;20198;-82
2020/12/21 03:37:13;;;;;;;6.90;6.25;;;6.90;99.90;;;;;;4991111;28;20197;-81
2020/12/21 03:39:39;;;;;;;8.00;6.90;;;6.70;99.90;;;;;;4990464;28;20225;-82
2020/12/21 03:42:06;;;;;;;7.88;7.15;;;6.70;99.90;;;;;;4991001;28;20624;-81
2020/12/21 03:44:32;;;;;;;8.88;7.05;;;6.70;99.90;;;;;;4989710;28;20573;-81
2020/12/21 03:46:59;;;;;;;10.02;8.05;;;6.60;99.90;;;;;;4990479;28;20254;-82
2020/12/21 03:49:26;;;;;;;7.63;6.75;;;6.60;99.90;;;;;;4990311;28;20198;-82
2020/12/21 03:51:52;;;;;;;7.43;6.63;;;6.60;99.90;;;;;;4990707;28;20656;-82
2020/12/21 03:54:19;;;;;;;7.97;7.18;;;6.70;99.90;;;;;;4989438;28;20225;-81
2020/12/21 03:56:45;;;;;;;8.30;6.78;;;6.50;99.90;;;;;;4990252;28;20198;-81
2020/12/21 03:59:11;;;;;;;7.53;6.70;;;6.50;99.90;;;;;;4989825;28;20198;-81
2020/12/21 04:01:38;;;;;;;7.55;6.85;;;6.50;99.90;;;;;;4990099;28;20225;-81
2020/12/21 04:04:06;;;;;;;8.13;7.30;;;6.40;99.90;;;;;;4989436;28;20225;-81
2020/12/21 04:06:32;;;;;;;7.45;6.85;;;6.40;99.90;;;;;;4980665;28;20202;-81
2020/12/21 04:08:59;;;;;;;6.70;6.10;;;6.30;99.90;;;;;;4990267;28;20202;-81
2020/12/21 04:11:25;;;;;;;6.45;5.85;;;6.20;99.90;;;;;;4990153;28;20603;-82
2020/12/21 04:13:52;;;;;;;6.60;6.00;;;6.10;99.90;;;;;;4989321;28;20236;-81
2020/12/21 04:16:18;;;;;;;6.53;5.93;;;6.10;99.90;;;;;;4989773;28;20197;-81
2020/12/21 04:18:45;;;;;;;9.48;7.00;;;6.10;99.90;;;;;;4990353;28;20241;-81
2020/12/21 04:21:14;;;;;;;6.45;5.68;;;6.10;99.90;;;;;;4988816;28;20237;-81
2020/12/21 04:23:40;;;;;;;6.50;5.80;;;6.20;99.90;;;;;;4989528;28;20254;-81
2020/12/21 04:26:07;;;;;;;7.50;6.15;;;6.20;99.90;;;;;;4989804;28;20236;-82
2020/12/21 04:28:34;;;;;;;7.32;5.95;;;6.20;99.90;;;;;;4990219;28;20194;-82
2020/12/21 04:31:01;;;;;;;5.63;5.15;;;6.30;99.90;;;;;;4991880;28;20221;-82
2020/12/21 04:33:28;;;;;;;6.55;5.97;;;6.30;99.90;;;;;;4993470;28;20198;-82
2020/12/21 04:35:54;;;;;;;6.93;6.22;;;6.40;99.90;;;;;;4993316;28;20198;-81
2020/12/21 04:38:22;;;;;;;7.15;6.45;;;6.50;99.90;;;;;;4994132;28;20491;-82
2020/12/21 04:40:50;;;;;;;8.00;6.70;;;6.50;99.90;;;;;;4993584;28;20229;-82
2020/12/21 04:43:17;;;;;;;8.02;5.95;;;6.60;99.90;;;;;;4993449;28;20575;-82
2020/12/21 04:45:44;;;;;;;7.05;6.35;;;6.70;99.90;;;;;;4992868;28;20218;-82
2020/12/21 04:48:15;;;;;;;6.97;6.38;;;6.60;99.90;;;;;;4993908;28;20562;-82
2020/12/21 04:50:42;;;;;;;7.43;6.65;;;7.90;99.90;;;;;;4993303;28;20206;-82
2020/12/21 04:53:09;;;;;;;6.95;6.25;;;6.60;99.90;;;;;;4993488;28;20233;-82
2020/12/21 04:55:36;;;;;;;10.45;6.85;;;6.60;99.90;;;;;;4993058;28;20248;-82
2020/12/21 04:58:05;;;;;;;6.90;6.30;;;6.50;99.90;;;;;;4992810;28;20198;-82
2020/12/21 05:00:32;;;;;;;6.80;6.15;;;6.80;99.90;;;;;;4992979;28;20232;-82
2020/12/21 05:03:00;;;;;;;9.52;7.40;;;6.50;99.90;;;;;;4993194;28;20230;-82
2020/12/21 05:05:30;;;;;;;6.93;6.25;;;6.60;99.90;;;;;;4992786;28;20570;-82
2020/12/21 05:07:57;;;;;;;9.63;6.60;;;6.50;99.90;;;;;;4993224;28;20695;-82
2020/12/21 05:10:24;;;;;;;7.03;6.32;;;6.50;99.90;;;;;;4992578;28;20297;-82
2020/12/21 05:13:01;;;;;;;8.05;7.22;;;6.60;99.90;;;;;;4993390;28;20264;-82
2020/12/21 05:15:28;;;;;;;9.10;7.05;;;6.60;99.90;;;;;;4992814;28;20217;-82
2020/12/21 05:18:08;;;;;;;9.63;7.60;;;6.80;99.90;;;;;;4993083;28;20201;-82
2020/12/21 05:20:36;;;;;;;8.52;7.25;;;6.90;99.90;;;;;;4992608;28;20257;-82
2020/12/21 05:23:03;;;;;;;8.25;7.45;;;6.80;99.90;;;;;;4992084;28;20317;-82
2020/12/21 05:25:30;;;;;;;8.85;7.80;;;6.80;99.90;;;;;;4992345;28;20230;-82
2020/12/21 05:28:10;;;;;;;8.85;8.05;;;6.70;99.90;;;;;;4993079;28;20813;-83
2020/12/21 05:30:37;;;;;;;10.05;9.00;;;6.60;99.90;;;;;;4992854;28;20194;-82
2020/12/21 05:33:03;;;;;;;11.18;10.05;;;6.70;99.90;;;;;;4992467;28;20571;-83
2020/12/21 05:35:30;;;;;;;9.82;8.80;;;6.60;99.90;;;;;;4991774;28;20197;-82
2020/12/21 05:37:57;;;;;;;10.50;9.27;;;6.50;99.90;;;;;;4992708;28;20233;-82
2020/12/21 05:40:26;;;;;;;9.50;8.60;;;6.60;99.90;;;;;;4992454;28;20241;-82
2020/12/21 05:42:53;;;;;;;10.48;9.25;;;6.70;99.90;;;;;;4992239;28;20264;-82
2020/12/21 05:45:20;;;;;;;10.07;8.80;;;6.70;99.90;;;;;;4991696;28;20202;-82
2020/12/21 05:47:49;;;;;;;10.25;8.98;;;6.70;99.90;;;;;;4992350;28;20198;-82
2020/12/21 05:50:21;;;;;;;10.50;9.25;;;6.70;99.90;;;;;;4991686;28;20202;-82
2020/12/21 05:52:54;;;;;;;10.20;9.27;;;6.70;99.90;;;;;;4992300;28;20194;-82
2020/12/21 05:55:22;;;;;;;10.93;9.00;;;6.70;99.90;;;;;;4991767;28;20241;-82
2020/12/21 05:57:49;;;;;;;10.60;9.60;;;6.70;99.90;;;;;;4992724;28;20194;-82
2020/12/21 06:00:16;;;;;;;9.80;8.85;;;6.70;99.90;;;;;;4991545;28;20251;-82
2020/12/21 06:02:44;;;;;;;9.23;8.27;;;6.60;99.90;;;;;;4991885;28;20229;-82
2020/12/21 06:05:11;;;;;;;10.93;9.88;;;6.70;99.90;;;;;;4991926;28;20198;-83
2020/12/21 06:07:39;;;;;;;10.57;9.52;;;6.80;99.90;;;;;;4991953;28;20198;-83
2020/12/21 06:10:08;;;;;;;11.27;10.10;;;6.70;99.90;;;;;;4992376;28;20202;-83
2020/12/21 06:12:44;;;;;;;10.15;9.20;;;6.70;99.90;;;;;;4991789;28;20260;-82
2020/12/21 06:15:13;;;;;;;11.38;9.50;;;6.80;99.90;;;;;;4991685;28;20202;-83
2020/12/21 06:17:39;;;;;;;10.88;9.77;;;6.80;99.90;;;;;;4992365;28;20205;-83
2020/12/21 06:20:09;;;;;;;12.85;10.27;;;6.80;99.90;;;;;;4991861;28;20230;-83
2020/12/21 06:22:35;;;;;;;11.75;10.27;;;7.20;99.90;;;;;;4991871;28;20603;-83
2020/12/21 06:25:03;;;;;;;10.73;9.43;;;6.70;99.90;;;;;;4990718;28;20233;-83
2020/12/21 06:27:39;;;;;;;11.77;9.20;;;6.60;99.90;;;;;;4991455;28;20585;-82
2020/12/21 06:30:06;;;;;;;9.82;8.85;;;6.50;99.90;;;;;;4990977;28;20248;-82
2020/12/21 06:32:34;;;;;;;10.48;9.40;;;6.50;99.90;;;;;;4991306;28;20234;-82
2020/12/21 06:35:01;;;;;;;11.43;10.10;;;6.50;99.90;;;;;;4991546;28;20202;-83
2020/12/21 06:37:29;;;;;;;12.55;10.27;;;6.60;99.90;;;;;;4991359;28;20225;-83
2020/12/21 06:40:00;;;;;;;11.23;9.60;;;6.50;99.90;;;;;;4991000;28;20201;-83
2020/12/21 06:42:27;;;;;;;11.05;9.90;;;6.70;99.90;;;;;;4991781;28;20253;-83
2020/12/21 06:44:55;;;;;;;11.10;9.82;;;6.60;99.90;;;;;;4990750;28;20226;-83
2020/12/21 06:47:22;;;;;;;11.23;9.95;;;6.60;99.80;;;;;;4991233;28;20194;-82
2020/12/21 06:49:49;;;;;;;10.55;8.90;;;6.50;99.90;;;;;;4990820;28;20245;-83
2020/12/21 06:52:15;;;;;;;11.38;10.02;;;6.40;99.90;;;;;;4990863;28;20237;-83
2020/12/21 06:54:44;;;;;;;11.15;9.73;;;6.50;99.90;;;;;;4990308;28;20280;-82
2020/12/21 06:57:11;;;;;;;10.75;9.68;;;6.40;99.90;;;;;;4991689;28;20305;-82
2020/12/21 06:59:37;;;;;;;10.00;9.10;;;6.30;99.90;;;;;;4990973;28;20194;-82
2020/12/21 07:02:04;;;;;;;9.18;8.13;;;6.20;99.90;;;;;;4990862;28;20279;-82
2020/12/21 07:04:33;;;;;;;9.93;8.80;;;6.20;99.90;;;;;;4989873;28;20193;-82
2020/12/21 07:07:02;;;;;;;11.93;8.88;;;6.30;99.90;;;;;;4990210;28;20202;-83
2020/12/21 07:09:29;;;;;;;9.07;8.18;;;7.30;99.90;;;;;;4990497;28;20202;-83
2020/12/21 07:11:58;;;;;;;13.02;8.60;;;6.50;99.90;;;;;;4990595;28;20252;-85
2020/12/21 07:14:26;;;;;;;11.57;8.82;;;6.50;99.90;;;;;;4989752;28;20225;-84
2020/12/21 07:17:02;;;;;;;10.38;9.27;;;6.40;99.90;;;;;;4991357;28;20198;-84
2020/12/21 07:19:28;;;;;;;9.23;8.32;;;6.50;99.90;;;;;;4989875;28;20221;-84
2020/12/21 07:21:56;;;;;;;9.05;7.80;;;6.50;99.90;;;;;;4991359;28;20202;-84
2020/12/21 07:24:23;;;;;;;10.77;8.20;;;6.50;99.90;;;;;;4990038;28;20315;-85
2020/12/21 07:26:49;;;;;;;13.65;8.50;;;6.60;99.90;;;;;;4991301;28;20675;-84
2020/12/21 07:29:16;;;;;;;10.80;7.25;;;6.60;99.90;;;;;;4989840;28;20202;-84
2020/12/21 07:31:43;;;;;;;18.33;9.18;;;6.60;99.90;;;;;;4991455;28;20241;-85
2020/12/21 07:34:10;;;;;;;10.43;8.52;;;6.60;99.90;;;;;;4989686;28;20236;-85
2020/12/21 07:36:38;;;;;;;11.73;9.68;;;6.70;99.90;;;;;;4991072;28;20205;-84
2020/12/21 07:39:08;;;;;;;10.73;9.57;;;6.70;99.90;;;;;;4990634;28;20240;-85
2020/12/21 07:41:37;;;;;;;10.98;9.98;;;6.60;99.90;;;;;;4991107;28;20698;-84
2020/12/21 07:44:08;;;;;;;10.80;9.25;;;6.90;99.90;;;;;;4988464;28;20268;-84
2020/12/21 07:46:46;;;;;;;11.05;9.95;;;6.50;99.90;;;;;;4990350;28;20224;-83
2020/12/21 07:49:13;;;;;;;11.63;10.43;;;6.50;99.90;;;;;;4990127;28;20198;-84
2020/12/21 07:51:43;;;;;;;15.35;9.70;;;6.50;99.90;;;;;;4974578;28;20229;-85
2020/12/21 07:54:11;;;;;;;11.20;9.98;;;6.50;99.90;;;;;;4989467;28;20194;-84
2020/12/21 07:56:38;;;;;;;9.35;8.35;;;6.50;99.90;;;;;;4990349;28;20198;-85
2020/12/21 07:59:16;;;;;;;10.70;9.57;;;6.40;99.90;;;;;;4989509;28;20198;-85
2020/12/21 08:01:44;;;;;;;10.60;9.52;;;6.40;99.90;;;;;;4990351;28;20616;-85
2020/12/21 08:04:18;;;;;;;12.15;10.13;;;6.40;99.90;;;;;;4989243;28;20230;-84
2020/12/21 08:06:46;;;;;;;12.27;10.35;;;6.40;99.90;;;;;;4994269;28;20524;-84
2020/12/21 08:09:12;;;;;;;11.32;9.43;;;7.10;99.90;;;;;;4975649;28;20210;-84
2020/12/21 08:11:40;;;;;;;10.55;9.55;;;6.50;99.90;;;;;;4993816;28;20206;-84
2020/12/21 08:14:08;;;;;;;12.10;10.38;;;6.60;99.90;;;;;;4993629;28;20279;-84
2020/12/21 08:16:35;;;;;;;10.38;9.35;;;6.60;99.80;;;;;;4994361;28;20197;-84
2020/12/21 08:19:02;;;;;;;10.90;9.20;;;6.60;99.90;;;;;;4994337;28;20202;-85
2020/12/21 08:21:29;;;;;;;10.65;9.65;;;6.70;99.80;;;;;;4993998;28;20601;-85
2020/12/21 08:23:57;;;;;;;10.30;9.25;;;6.60;99.70;;;;;;4992737;28;20646;-84
2020/12/21 08:26:24;;;;;;;11.30;10.20;;;6.70;99.90;;;;;;4994300;28;20237;-85
2020/12/21 08:28:52;;;;;;;12.82;11.00;;;6.80;99.90;;;;;;4993876;28;20749;-84
2020/12/21 08:31:20;;;;;;;14.10;10.77;;;6.90;99.90;;;;;;4992841;28;20205;-84
2020/12/21 08:34:04;;;;;;;10.85;9.82;;;7.00;99.80;;;;;;4992778;28;20237;-83
2020/12/21 08:36:33;;;;;;;10.98;9.30;;;6.90;99.80;;;;;;4993784;28;20217;-84
2020/12/21 08:39:11;;;;;;;15.30;10.60;;;7.00;99.70;;;;;;4993248;28;20664;-85
2020/12/21 08:41:41;;;;;;;11.98;10.13;;;7.10;99.50;;;;;;4994557;28;20601;-85
2020/12/21 08:44:09;;;;;;;12.70;10.75;;;7.10;99.20;;;;;;4993172;28;20225;-85
2020/12/21 08:46:35;;;;;;;14.00;11.00;;;7.20;99.20;;;;;;4992293;28;20237;-84
2020/12/21 08:49:02;;;;;;;13.00;11.15;;;7.20;99.10;;;;;;4992249;28;20206;-85
2020/12/21 08:51:29;;;;;;;13.43;12.05;;;7.20;99.10;;;;;;4993100;28;20691;-84
2020/12/21 08:53:57;;;;;;;13.70;10.57;;;7.30;99.10;;;;;;4992610;28;20257;-84
2020/12/21 08:56:24;;;;;;;14.77;11.35;;;7.40;99.00;;;;;;4993391;28;20198;-85
2020/12/21 08:58:51;;;;;;;14.70;12.20;;;7.40;99.00;;;;;;4992499;28;20201;-84
2020/12/21 09:01:17;;;;;;;16.80;11.73;;;7.50;99.00;;;;;;4993502;28;20220;-85
2020/12/21 09:03:46;;;;;;;14.10;12.10;;;7.50;99.00;;;;;;4992275;28;20287;-85
2020/12/21 09:06:18;;;;;;;12.05;10.60;;;7.80;99.20;;;;;;4992794;28;20711;-85
2020/12/21 09:08:44;;;;;;;11.77;10.02;;;7.50;99.10;;;;;;4993867;28;20228;-85
2020/12/21 09:11:11;;;;;;;12.60;9.43;;;7.60;99.20;;;;;;4992789;28;20300;-85
2020/12/21 09:13:40;;;;;;;11.68;9.18;;;7.60;99.20;;;;;;4973525;28;20477;-85
2020/12/21 09:16:07;;;;;;;12.70;9.55;;;7.70;99.20;;;;;;4991480;28;20194;-84
2020/12/21 09:18:34;;;;;;;11.90;9.45;;;7.80;99.20;;;;;;4993330;28;20252;-85
2020/12/21 09:21:00;;;;;;;11.13;9.90;;;7.70;99.10;;;;;;4993629;28;20270;-85
2020/12/21 09:23:28;;;;;;;13.73;9.80;;;7.80;99.20;;;;;;4992925;28;20557;-82
2020/12/21 09:25:54;;;;;;;11.93;10.02;;;7.80;99.10;;;;;;4991625;28;20206;-85
2020/12/21 09:28:21;;;;;;;12.18;10.40;;;7.90;99.20;;;;;;4991516;28;20261;-85
2020/12/21 09:30:47;;;;;;;10.57;9.27;;;8.00;99.10;;;;;;4989971;28;20276;-84
2020/12/21 09:33:14;;;;;;;12.18;9.70;;;8.00;99.10;;;;;;4991631;28;20285;-84
2020/12/21 09:35:40;;;;;;;11.00;9.82;;;8.10;99.00;;;;;;4988947;28;20592;-85
2020/12/21 09:38:06;;;;;;;9.65;8.32;;;8.00;98.90;;;;;;4991628;28;20190;-84
2020/12/21 09:40:34;;;;;;;12.63;8.73;;;8.10;98.90;;;;;;4988014;28;20712;-84
2020/12/21 09:43:00;;;;;;;9.20;8.13;;;8.20;98.80;;;;;;4989157;28;20249;-84
2020/12/21 09:45:26;;;;;;;8.63;7.68;;;8.20;98.70;;;;;;4990216;28;20202;-85
2020/12/21 09:47:53;;;;;;;12.60;7.10;;;8.20;98.70;;;;;;4992549;28;20210;-85
2020/12/21 09:50:19;;;;;;;8.10;7.13;;;8.30;98.70;;;;;;4989036;28;20205;-85
2020/12/21 09:52:46;;;;;;;9.57;8.15;;;8.40;98.60;;;;;;4990314;28;20671;-85
2020/12/21 09:55:13;;;;;;;9.98;7.80;;;8.40;98.50;;;;;;4990104;28;20555;-85
2020/12/21 09:57:41;;;;;;;8.80;7.85;;;8.50;98.40;;;;;;4989261;28;20197;-85
2020/12/21 10:00:07;;;;;;;9.07;7.70;;;8.50;98.40;;;;;;4990162;28;20194;-84
2020/12/21 10:02:34;;;;;;;9.23;8.20;;;8.50;98.30;;;;;;4990809;28;20256;-84
2020/12/21 10:05:00;;;;;;;11.13;7.68;;;8.50;98.30;;;;;;4987191;28;20217;-84
2020/12/21 10:07:26;;;;;;;12.05;6.97;;;8.60;98.40;;;;;;4990654;28;20252;-84
2020/12/21 10:09:53;;;;;;;10.30;8.65;;;8.70;98.40;;;;;;4990621;28;20249;-84
2020/12/21 10:12:19;;;;;;;14.35;9.48;;;8.70;98.20;;;;;;4990875;28;20594;-84
2020/12/21 10:14:46;;;;;;;10.52;7.85;;;8.70;98.40;;;;;;4989168;28;21891;-84
2020/12/21 10:17:13;;;;;;;8.68;7.03;;;8.60;98.30;;;;;;4990846;28;20194;-84
2020/12/21 10:19:42;;;;;;;11.32;7.57;;;8.70;98.20;;;;;;4990208;28;20213;-85
2020/12/21 10:22:09;;;;;;;8.68;6.47;;;8.80;98.10;;;;;;4990267;28;20205;-83
2020/12/21 10:24:35;;;;;;;7.97;6.95;;;8.80;98.10;;;;;;4988524;28;20238;-85
2020/12/21 10:27:02;;;;;;;7.63;6.78;;;8.80;98.20;;;;;;4991275;28;20603;-85
2020/12/21 10:29:28;;;;;;;7.05;6.40;;;9.00;97.90;;;;;;4990804;28;20204;-85
2020/12/21 10:31:58;;;;;;;7.82;7.03;;;9.00;97.60;;;;;;4988415;28;20202;-85
2020/12/21 10:34:25;;;;;;;7.70;6.55;;;9.10;97.50;;;;;;4988918;28;20198;-85
2020/12/21 10:36:51;;;;;;;7.50;6.78;;;9.00;97.70;;;;;;4990046;28;20206;-85
2020/12/21 10:39:18;;;;;;;6.80;5.72;;;9.10;98.00;;;;;;4979111;28;20314;-85
2020/12/21 10:41:45;;;;;;;5.20;4.70;;;9.30;97.80;;;;;;4990027;28;20230;-84
2020/12/21 10:44:11;;;;;;;5.88;5.25;;;9.10;97.60;;;;;;4989923;28;20230;-85
2020/12/21 10:46:38;;;;;;;5.32;4.82;;;9.10;97.50;;;;;;4990742;28;20757;-85
2020/12/21 10:49:05;;;;;;;7.47;5.53;;;9.20;97.40;;;;;;4990489;28;20205;-85
2020/12/21 10:52:37;;;;;;;7.20;4.18;;;9.10;97.20;;;;;;5107708;27;21165;-85
2020/12/21 10:55:04;;;;;;;4.93;4.45;;;9.10;97.00;;;;;;5093099;28;20199;-85
2020/12/21 10:57:30;;;;;;;6.68;5.97;;;9.10;96.90;;;;;;5088578;28;20198;-85
2020/12/21 10:59:57;;;;;;;6.53;4.60;;;9.10;97.10;;;;;;5086414;28;20191;-84
2020/12/21 11:02:23;;;;;;;5.97;5.07;;;9.20;97.10;;;;;;5077192;28;20241;-86
2020/12/21 11:04:49;;;;;;;5.70;4.40;;;9.10;97.00;;;;;;5084173;28;20214;-85
2020/12/21 11:07:16;;;;;;;6.18;5.55;;;9.20;97.00;;;;;;5084729;28;20227;-85
2020/12/21 11:09:43;;;;;;;6.78;5.47;;;9.20;97.10;;;;;;5085545;28;20214;-85
2020/12/21 11:12:10;;;;;;;8.30;5.82;;;9.20;97.00;;;;;;5079812;28;20280;-84
2020/12/21 11:14:36;;;;;;;8.15;5.85;;;9.20;97.10;;;;;;5084893;28;20195;-84
2020/12/21 11:17:03;;;;;;;5.57;5.07;;;9.10;97.10;;;;;;5083850;28;20191;-85
2020/12/21 11:19:29;;;;;;;6.32;5.28;;;9.20;97.20;;;;;;5085460;28;20680;-85
2020/12/21 11:21:55;;;;;;;5.95;5.28;;;9.30;97.10;;;;;;5086726;28;20194;-85
2020/12/21 11:24:22;;;;;;;5.50;4.95;;;9.30;97.00;;;;;;5085351;28;20190;-85
2020/12/21 11:26:52;;;;;;;5.55;5.03;;;9.50;96.80;;;;;;5086514;28;20531;-85
2020/12/21 11:29:19;;;;;;;4.97;4.47;;;9.50;96.70;;;;;;5100998;28;20202;-84
2020/12/21 11:31:45;;;;;;;4.65;4.25;;;9.50;96.80;;;;;;5094034;28;20283;-84
2020/12/21 11:34:12;;;;;;;5.00;4.60;;;9.50;96.90;;;;;;5099921;28;20273;-85
2020/12/21 11:36:42;;;;;;;4.75;4.35;;;9.60;96.80;;;;;;5084970;28;20198;-85
2020/12/21 11:39:08;;;;;;;8.25;5.55;;;9.70;96.70;;;;;;5088381;28;20218;-84
2020/12/21 11:41:34;;;;;;;8.20;4.97;;;9.70;96.70;;;;;;5087698;28;20203;-84
2020/12/21 11:44:02;;;;;;;7.13;3.90;;;9.70;96.70;;;;;;5085835;28;20229;-84
2020/12/21 11:46:32;;;;;;;4.80;4.40;;;9.60;96.90;;;;;;5084583;28;20623;-84
2020/12/21 11:48:59;;;;;;;6.30;4.90;;;9.60;96.80;;;;;;5085730;28;20586;-84
2020/12/21 11:51:25;;;;;;;6.50;5.22;;;9.30;97.20;;;;;;5084864;28;20245;-84
2020/12/21 11:53:52;;;;;;;5.53;4.90;;;9.20;97.40;;;;;;5086414;28;20194;-85
2020/12/21 11:56:18;;;;;;;5.60;4.45;;;9.30;97.60;;;;;;5082856;28;20195;-84
2020/12/21 11:58:45;;;;;;;4.75;4.35;;;9.20;97.50;;;;;;5082969;28;20652;-85
2020/12/21 12:01:12;;;;;;;4.38;3.95;;;9.20;97.90;;;;;;5081402;28;20237;-85
2020/12/21 12:03:38;;;;;;;5.45;4.70;;;9.20;97.90;;;;;;5070522;28;20218;-85
2020/12/21 12:06:05;;;;;;;6.72;4.80;;;9.20;98.00;;;;;;5072862;28;20240;-85
2020/12/21 12:08:32;;;;;;;4.07;3.67;;;9.30;97.80;;;;;;5072419;28;20187;-84
2020/12/21 12:10:59;;;;;;;5.30;4.77;;;9.30;98.20;;;;;;5071571;28;20296;-84
2020/12/21 12:13:25;;;;;;;4.75;4.35;;;9.40;98.00;;;;;;5070472;28;20629;-84
2020/12/21 12:15:52;;;;;;;6.47;4.15;;;9.40;98.10;;;;;;5070552;28;20702;-85
2020/12/21 12:18:19;;;;;;;5.10;4.60;;;9.50;98.40;;;;;;5072284;28;20191;-84
2020/12/21 12:20:45;;;;;;;5.75;4.88;;;9.40;98.20;;;;;;5071528;28;21198;-85
2020/12/21 12:23:12;;;;;;;5.70;5.20;;;9.50;98.60;;;;;;5071311;28;20194;-85
2020/12/21 12:25:38;;;;;;;5.00;4.50;;;9.40;99.00;;;;;;5071575;28;20702;-85
2020/12/21 12:28:05;;;;;;;5.72;5.22;;;9.40;99.00;;;;;;5072048;28;20203;-85
2020/12/21 12:30:31;;;;;;;5.80;4.78;;;9.50;99.00;;;;;;5073287;28;20187;-85
2020/12/21 12:32:57;;;;;;;5.20;4.70;;;9.50;99.00;;;;;;5072450;28;20562;-85
2020/12/21 12:35:25;;;;;;;4.00;3.70;;;9.50;99.10;;;;;;5073522;28;20206;-85
2020/12/21 12:37:51;;;;;;;9.03;6.03;;;9.60;99.00;;;;;;5070309;28;20653;-85
2020/12/21 12:40:17;;;;;;;5.30;4.80;;;9.80;99.00;;;;;;5072578;28;20647;-84
2020/12/21 12:42:45;;;;;;;4.00;3.70;;;9.80;98.70;;;;;;5078942;28;21262;-84
2020/12/21 12:45:11;;;;;;;4.00;3.60;;;9.70;98.60;;;;;;5075963;28;20191;-85
2020/12/21 12:47:38;;;;;;;4.17;3.47;;;9.70;98.60;;;;;;5076519;28;20620;-85
2020/12/21 12:50:05;;;;;;;3.83;3.42;;;9.80;98.80;;;;;;5079203;28;20613;-85
2020/12/21 12:52:34;;;;;;;3.80;3.50;;;10.10;97.90;;;;;;5071498;28;20227;-85
2020/12/21 12:55:01;;;;;;;5.40;3.33;;;10.40;97.80;;;;;;5078256;28;20620;-86